Time;durP1;ratioP1;P1;durP2;ratioP2;P2;SDS_P1;SDS_P2;PMS_P1;PMS_P2;Temp;Humidity;BMP_temperature;BMP_pressure;BME280_temperature;BME280_humidity;BME280_pressure;Samples;Min_cycle;Max_cycle;Signal;HPM_P1;HPM_P2
2023/09/26 00:00:28;;;;;;;8.50;8.40;;;10.70;99.90;;;;;;5080011;28;20453;-67
2023/09/26 00:02:55;;;;;;;7.80;7.70;;;10.70;99.90;;;;;;5074171;28;20446;-66
2023/09/26 00:05:23;;;;;;;8.23;8.13;;;10.70;99.90;;;;;;5085976;28;20485;-67
2023/09/26 00:07:51;;;;;;;8.30;8.20;;;10.70;99.90;;;;;;5072666;28;20450;-65
2023/09/26 00:10:18;;;;;;;7.70;7.60;;;10.70;99.90;;;;;;5083437;28;20450;-67
2023/09/26 00:12:45;;;;;;;8.50;8.40;;;10.70;99.90;;;;;;5079416;28;20574;-67
2023/09/26 00:15:14;;;;;;;7.73;7.63;;;10.70;99.90;;;;;;5075574;28;20972;-65
2023/09/26 00:17:41;;;;;;;6.73;6.63;;;10.70;99.90;;;;;;5087157;28;20519;-65
2023/09/26 00:20:27;;;;;;;6.50;6.40;;;10.70;99.90;;;;;;5077949;28;20670;-66
2023/09/26 00:22:55;;;;;;;6.87;6.77;;;10.70;99.90;;;;;;5075479;28;20537;-66
2023/09/26 00:25:23;;;;;;;6.57;6.47;;;10.70;99.90;;;;;;5080171;28;20627;-66
2023/09/26 00:27:51;;;;;;;7.33;7.23;;;10.70;99.90;;;;;;5070369;28;20916;-66
2023/09/26 00:30:19;;;;;;;6.50;6.40;;;10.70;99.90;;;;;;5080075;28;20914;-67
2023/09/26 00:32:47;;;;;;;6.40;6.30;;;10.70;99.90;;;;;;5087676;28;20967;-67
2023/09/26 00:35:15;;;;;;;6.67;6.57;;;10.70;99.90;;;;;;5085981;28;20525;-66
2023/09/26 00:37:43;;;;;;;6.60;6.50;;;10.60;99.90;;;;;;5082227;28;20465;-67
2023/09/26 00:40:14;;;;;;;6.77;6.67;;;10.50;99.90;;;;;;5076055;28;20463;-66
2023/09/26 00:42:41;;;;;;;6.43;6.33;;;10.50;99.90;;;;;;5079334;28;20489;-65
2023/09/26 00:45:08;;;;;;;6.50;6.40;;;10.60;99.90;;;;;;5085811;28;20818;-66
2023/09/26 00:47:37;;;;;;;6.20;6.10;;;10.60;99.90;;;;;;5085951;28;20462;-66
2023/09/26 00:50:07;;;;;;;7.20;7.10;;;10.60;99.90;;;;;;5080791;28;20954;-66
2023/09/26 00:52:35;;;;;;;7.13;7.03;;;10.50;99.90;;;;;;5083179;28;20941;-66
2023/09/26 00:55:04;;;;;;;6.50;6.40;;;10.50;99.90;;;;;;5087427;28;20496;-67
2023/09/26 00:57:33;;;;;;;6.80;6.70;;;10.50;99.90;;;;;;5086164;28;20459;-65
2023/09/26 01:00:01;;;;;;;6.93;6.83;;;10.50;99.90;;;;;;5079478;28;20549;-66
2023/09/26 01:02:29;;;;;;;6.90;6.80;;;10.50;99.90;;;;;;5073663;28;20473;-65
2023/09/26 01:04:57;;;;;;;6.60;6.50;;;10.50;99.90;;;;;;5088538;28;20817;-66
2023/09/26 01:07:26;;;;;;;6.70;6.60;;;10.50;99.90;;;;;;5085969;28;20469;-65
2023/09/26 01:09:54;;;;;;;7.27;7.17;;;10.40;99.90;;;;;;5090516;28;20507;-67
2023/09/26 01:12:21;;;;;;;6.83;6.73;;;10.40;99.90;;;;;;5088803;28;20556;-66
2023/09/26 01:14:48;;;;;;;6.40;6.30;;;10.40;99.90;;;;;;5082650;28;20476;-65
2023/09/26 01:17:15;;;;;;;7.30;7.20;;;10.40;99.90;;;;;;5084329;28;20462;-66
2023/09/26 01:19:42;;;;;;;7.83;7.73;;;10.30;99.90;;;;;;5078821;28;20462;-66
2023/09/26 01:22:11;;;;;;;6.73;6.63;;;10.40;99.90;;;;;;5087137;28;20811;-66
2023/09/26 01:24:41;;;;;;;6.60;6.50;;;10.40;99.90;;;;;;5068637;28;20917;-65
2023/09/26 01:27:08;;;;;;;6.87;6.77;;;10.40;99.90;;;;;;5089378;28;20468;-65
2023/09/26 01:29:38;;;;;;;6.97;6.87;;;10.30;99.90;;;;;;5090548;28;20846;-66
2023/09/26 01:32:05;;;;;;;7.10;7.00;;;10.30;99.90;;;;;;5075460;28;20517;-66
2023/09/26 01:34:32;;;;;;;6.90;6.80;;;10.30;99.90;;;;;;5090508;28;20493;-66
2023/09/26 01:36:59;;;;;;;6.90;6.80;;;10.20;99.90;;;;;;5090038;28;20488;-66
2023/09/26 01:39:27;;;;;;;7.40;7.30;;;10.20;99.90;;;;;;5079643;28;20526;-65
2023/09/26 01:41:56;;;;;;;6.90;6.80;;;10.20;99.90;;;;;;5078335;28;20461;-66
2023/09/26 01:44:23;;;;;;;7.53;7.43;;;10.20;99.90;;;;;;5077993;28;20471;-66
2023/09/26 01:46:51;;;;;;;7.47;7.37;;;10.10;99.90;;;;;;5078963;28;20450;-66
2023/09/26 01:49:18;;;;;;;7.27;7.17;;;10.10;99.90;;;;;;5089723;28;20454;-66
2023/09/26 01:51:45;;;;;;;8.53;8.43;;;10.10;99.90;;;;;;5084468;28;20553;-66
2023/09/26 01:54:12;;;;;;;7.60;7.50;;;10.20;99.90;;;;;;5076538;28;20534;-66
2023/09/26 01:56:39;;;;;;;7.70;7.60;;;10.20;99.90;;;;;;5081374;28;20473;-65
2023/09/26 01:59:06;;;;;;;8.67;8.57;;;10.10;99.90;;;;;;5076168;28;20542;-66
2023/09/26 02:01:33;;;;;;;8.17;8.07;;;10.10;99.90;;;;;;5088035;28;20453;-65
2023/09/26 02:04:00;;;;;;;7.67;7.57;;;10.10;99.90;;;;;;5087949;28;20833;-66
2023/09/26 02:06:28;;;;;;;9.23;9.03;;;10.10;99.90;;;;;;5077662;28;20466;-66
2023/09/26 02:08:55;;;;;;;9.20;9.00;;;10.10;99.90;;;;;;5077319;28;20590;-65
2023/09/26 02:11:22;;;;;;;8.97;8.77;;;10.10;99.90;;;;;;5081521;28;20461;-67
2023/09/26 02:13:52;;;;;;;8.30;8.20;;;10.00;99.90;;;;;;5088788;28;20449;-65
2023/09/26 02:16:21;;;;;;;7.70;7.60;;;10.00;99.90;;;;;;5089456;28;20821;-66
2023/09/26 02:18:48;;;;;;;7.97;7.87;;;10.10;99.90;;;;;;5084543;28;20868;-66
2023/09/26 02:21:20;;;;;;;7.60;7.50;;;10.10;99.90;;;;;;5084765;28;20466;-65
2023/09/26 02:23:48;;;;;;;5.70;5.60;;;10.10;99.90;;;;;;5070069;28;20834;-66
2023/09/26 02:26:18;;;;;;;8.17;8.07;;;10.10;99.90;;;;;;5077462;28;20625;-65
2023/09/26 02:28:45;;;;;;;7.50;7.40;;;10.10;99.90;;;;;;5081997;28;20478;-67
2023/09/26 02:31:15;;;;;;;8.00;7.90;;;10.10;99.90;;;;;;5083716;28;20457;-66
2023/09/26 02:33:45;;;;;;;7.87;7.77;;;10.10;99.90;;;;;;5079479;28;20899;-65
2023/09/26 02:36:12;;;;;;;8.30;8.20;;;10.10;99.90;;;;;;5085759;28;20587;-65
2023/09/26 02:38:39;;;;;;;7.80;7.70;;;10.00;99.90;;;;;;5074841;28;20473;-66
2023/09/26 02:41:05;;;;;;;8.63;8.53;;;10.00;99.90;;;;;;5086166;28;20457;-67
2023/09/26 02:43:32;;;;;;;8.40;8.30;;;10.00;99.90;;;;;;5082026;28;20457;-64
2023/09/26 02:45:59;;;;;;;8.60;8.50;;;10.00;99.90;;;;;;5077457;28;20458;-66
2023/09/26 02:48:27;;;;;;;8.60;8.50;;;10.00;99.90;;;;;;5088483;28;20458;-65
2023/09/26 02:51:03;;;;;;;8.43;8.33;;;10.00;99.90;;;;;;5088623;28;20982;-67
2023/09/26 02:53:30;;;;;;;8.40;8.30;;;10.00;99.90;;;;;;5080289;28;20789;-66
2023/09/26 02:55:57;;;;;;;8.07;7.97;;;10.10;99.90;;;;;;5085289;28;20529;-65
2023/09/26 02:58:24;;;;;;;7.60;7.50;;;10.20;99.90;;;;;;5086363;28;20456;-66
2023/09/26 03:00:52;;;;;;;7.97;7.87;;;10.20;99.90;;;;;;5079245;28;20774;-64
2023/09/26 03:03:18;;;;;;;8.70;8.60;;;10.20;99.90;;;;;;5076578;28;21003;-66
2023/09/26 03:05:50;;;;;;;8.20;8.10;;;10.30;99.90;;;;;;5077993;28;20572;-66
2023/09/26 03:08:18;;;;;;;8.07;7.97;;;10.20;99.90;;;;;;5086567;28;20816;-65
2023/09/26 03:10:45;;;;;;;8.30;8.20;;;10.20;99.90;;;;;;5077645;28;20485;-67
2023/09/26 03:13:13;;;;;;;8.23;8.13;;;10.20;99.90;;;;;;5083703;28;20469;-64
2023/09/26 03:15:40;;;;;;;7.97;7.87;;;10.10;99.90;;;;;;5093202;28;20998;-65
2023/09/26 03:18:07;;;;;;;8.07;7.97;;;10.10;99.90;;;;;;5093192;28;20446;-67
2023/09/26 03:20:38;;;;;;;8.27;8.17;;;10.10;99.90;;;;;;5077454;28;20472;-67
2023/09/26 03:23:06;;;;;;;8.13;8.03;;;10.10;99.90;;;;;;5084187;28;20601;-66
2023/09/26 03:25:34;;;;;;;8.47;8.37;;;10.10;99.90;;;;;;5081030;28;20544;-66
2023/09/26 03:30:44;;;;;;;8.97;8.80;;;10.10;99.90;;;;;;5083883;28;20463;-65
2023/09/26 03:33:11;;;;;;;7.47;7.37;;;10.20;99.90;;;;;;5076720;28;20467;-66
2023/09/26 03:35:38;;;;;;;8.60;8.50;;;10.10;99.90;;;;;;5084544;28;20506;-66
2023/09/26 03:38:05;;;;;;;7.90;7.80;;;10.10;99.90;;;;;;5079392;28;20464;-67
2023/09/26 03:40:34;;;;;;;7.60;7.50;;;10.10;99.90;;;;;;5085845;28;20484;-67
2023/09/26 03:43:00;;;;;;;9.23;9.03;;;10.10;99.90;;;;;;5080399;28;20770;-66
2023/09/26 03:45:27;;;;;;;8.33;8.23;;;10.10;99.90;;;;;;5075576;28;20804;-65
2023/09/26 03:47:54;;;;;;;8.20;8.10;;;10.10;99.90;;;;;;5080288;28;20466;-67
2023/09/26 03:50:21;;;;;;;8.50;8.40;;;10.00;99.90;;;;;;5085020;28;21125;-65
2023/09/26 03:52:48;;;;;;;8.60;8.50;;;9.90;99.90;;;;;;5087771;28;20457;-65
2023/09/26 03:55:15;;;;;;;10.50;10.30;;;9.80;99.90;;;;;;5079098;28;20486;-66
2023/09/26 03:57:44;;;;;;;9.00;8.80;;;9.90;99.90;;;;;;5086227;28;20454;-67
2023/09/26 04:00:16;;;;;;;8.63;8.53;;;9.90;99.90;;;;;;5074421;28;21214;-66
2023/09/26 04:02:43;;;;;;;8.23;8.13;;;9.90;99.90;;;;;;5082503;28;20996;-66
2023/09/26 04:05:11;;;;;;;8.50;8.40;;;9.80;99.90;;;;;;5080830;28;20820;-65
2023/09/26 04:07:39;;;;;;;8.90;8.80;;;9.80;99.90;;;;;;5073475;28;20454;-66
2023/09/26 04:10:07;;;;;;;8.20;8.10;;;9.80;99.90;;;;;;5083842;28;20458;-65
2023/09/26 04:12:34;;;;;;;9.10;8.90;;;9.80;99.90;;;;;;5077706;28;20559;-66
2023/09/26 04:15:04;;;;;;;8.70;8.60;;;9.70;99.90;;;;;;5091932;28;20507;-66
2023/09/26 04:17:30;;;;;;;9.00;8.80;;;9.80;99.90;;;;;;5088203;28;20482;-65
2023/09/26 04:19:58;;;;;;;8.70;8.60;;;9.80;99.90;;;;;;5084424;28;20466;-66
2023/09/26 04:22:27;;;;;;;9.30;9.10;;;9.80;99.90;;;;;;5091693;28;20450;-66
2023/09/26 04:24:54;;;;;;;8.87;8.77;;;9.90;99.90;;;;;;5078991;28;20541;-66
2023/09/26 04:27:21;;;;;;;8.40;8.30;;;10.00;99.90;;;;;;5083686;28;20474;-68
2023/09/26 04:29:51;;;;;;;8.53;8.43;;;10.10;99.90;;;;;;5074934;28;20530;-68
2023/09/26 04:32:20;;;;;;;8.77;8.67;;;10.20;99.90;;;;;;5057975;28;20447;-67
2023/09/26 04:34:47;;;;;;;8.70;8.60;;;10.30;99.90;;;;;;5059124;28;20463;-66
2023/09/26 04:37:15;;;;;;;8.80;8.70;;;10.30;99.90;;;;;;5058863;28;20446;-66
2023/09/26 04:39:41;;;;;;;8.37;8.27;;;10.30;99.90;;;;;;5058616;28;20467;-68
2023/09/26 04:42:08;;;;;;;8.13;8.03;;;10.40;99.90;;;;;;5066106;28;20458;-67
2023/09/26 04:44:36;;;;;;;8.10;8.00;;;10.40;99.90;;;;;;5052835;28;20505;-66
2023/09/26 04:47:03;;;;;;;9.80;9.60;;;10.40;99.90;;;;;;5063516;28;20551;-66
2023/09/26 04:49:33;;;;;;;8.07;7.97;;;10.40;99.90;;;;;;5068752;28;20458;-66
2023/09/26 04:52:00;;;;;;;9.40;9.20;;;10.40;99.90;;;;;;5053435;28;20473;-68
2023/09/26 04:54:28;;;;;;;9.20;9.00;;;10.40;99.90;;;;;;5059680;28;20463;-65
2023/09/26 04:56:55;;;;;;;9.97;9.77;;;10.40;99.90;;;;;;5061343;28;20491;-69
2023/09/26 04:59:22;;;;;;;12.60;12.20;;;10.40;99.90;;;;;;5054767;28;20466;-67
2023/09/26 05:01:49;;;;;;;11.97;11.67;;;10.50;99.90;;;;;;5058885;28;20458;-67
2023/09/26 05:04:17;;;;;;;12.20;11.80;;;10.50;99.90;;;;;;5053426;28;20974;-67
2023/09/26 05:06:45;;;;;;;11.90;11.60;;;10.50;99.90;;;;;;5055940;28;20450;-67
2023/09/26 05:09:12;;;;;;;12.27;11.87;;;10.50;99.90;;;;;;5058944;28;20466;-68
2023/09/26 05:11:39;;;;;;;12.53;12.13;;;10.50;99.90;;;;;;5050312;28;20463;-67
2023/09/26 05:14:06;;;;;;;12.03;11.70;;;10.50;99.90;;;;;;5058029;28;20464;-66
2023/09/26 05:16:33;;;;;;;12.60;12.20;;;10.50;99.90;;;;;;5058427;28;20500;-68
2023/09/26 05:19:00;;;;;;;13.40;13.00;;;10.50;99.90;;;;;;5057312;28;20456;-67
2023/09/26 05:21:26;;;;;;;12.53;12.13;;;10.60;99.90;;;;;;5053307;28;20459;-69
2023/09/26 05:23:55;;;;;;;12.63;12.23;;;10.60;99.90;;;;;;5055946;28;20579;-67
2023/09/26 05:26:22;;;;;;;11.70;11.40;;;10.60;99.90;;;;;;5054956;28;20467;-67
2023/09/26 05:28:49;;;;;;;11.57;11.27;;;10.60;99.90;;;;;;5070742;28;20482;-69
2023/09/26 05:31:17;;;;;;;12.23;11.83;;;10.50;99.90;;;;;;5088944;28;20450;-67
2023/09/26 05:33:45;;;;;;;12.40;12.00;;;10.50;99.90;;;;;;5084258;28;20483;-67
2023/09/26 05:36:12;;;;;;;12.27;11.87;;;10.50;99.90;;;;;;5079422;28;20567;-68
2023/09/26 05:38:40;;;;;;;12.60;12.20;;;10.60;99.90;;;;;;5071790;28;20457;-67
2023/09/26 05:41:11;;;;;;;12.93;12.53;;;10.60;99.90;;;;;;5075294;28;20461;-69
2023/09/26 05:43:39;;;;;;;12.70;12.30;;;10.60;99.90;;;;;;5079762;28;20509;-67
2023/09/26 05:46:07;;;;;;;12.40;12.00;;;10.60;99.90;;;;;;5077126;28;20465;-66
2023/09/26 05:48:34;;;;;;;12.80;12.40;;;10.60;99.90;;;;;;5075364;28;20491;-67
2023/09/26 05:51:03;;;;;;;12.83;12.43;;;10.50;99.90;;;;;;5080407;28;20454;-66
2023/09/26 05:53:31;;;;;;;12.90;12.50;;;10.60;99.90;;;;;;5078059;28;20518;-69
2023/09/26 05:55:59;;;;;;;12.20;11.80;;;10.70;99.90;;;;;;5073049;28;20486;-68
2023/09/26 05:58:28;;;;;;;12.50;12.10;;;10.70;99.90;;;;;;5076336;28;21024;-67
2023/09/26 06:00:56;;;;;;;12.20;11.80;;;10.70;99.90;;;;;;5085464;28;20880;-67
2023/09/26 06:03:23;;;;;;;12.00;11.70;;;10.80;99.90;;;;;;5078915;28;20920;-66
2023/09/26 06:05:52;;;;;;;12.70;12.30;;;10.90;99.90;;;;;;5088348;28;20462;-67
2023/09/26 06:08:19;;;;;;;12.07;11.67;;;10.90;99.90;;;;;;5076573;28;20564;-67
2023/09/26 06:10:53;;;;;;;12.00;11.70;;;11.00;99.90;;;;;;5088342;28;20462;-68
2023/09/26 06:13:20;;;;;;;12.40;12.00;;;11.10;99.90;;;;;;5083002;28;20457;-69
2023/09/26 06:15:50;;;;;;;12.40;12.00;;;11.10;99.90;;;;;;5083742;28;20497;-68
2023/09/26 06:18:17;;;;;;;12.03;11.63;;;11.20;99.90;;;;;;5078652;28;20557;-67
2023/09/26 06:20:44;;;;;;;13.37;12.87;;;11.20;99.90;;;;;;5073580;28;20554;-67
2023/09/26 06:23:12;;;;;;;12.47;12.07;;;11.30;99.90;;;;;;5065008;28;21021;-69
2023/09/26 06:25:40;;;;;;;13.73;13.23;;;11.40;99.90;;;;;;5082771;28;20825;-68
2023/09/26 06:28:08;;;;;;;13.67;13.17;;;11.50;99.90;;;;;;5072298;28;20473;-67
2023/09/26 06:30:35;;;;;;;13.23;12.83;;;11.60;99.90;;;;;;5074582;28;20474;-69
2023/09/26 06:33:04;;;;;;;12.70;12.30;;;11.70;99.90;;;;;;5085041;28;20942;-67
2023/09/26 06:35:32;;;;;;;12.60;12.20;;;11.80;99.90;;;;;;5084109;28;20995;-68
2023/09/26 06:37:59;;;;;;;13.03;12.63;;;11.80;99.90;;;;;;5077640;28;20549;-67
2023/09/26 06:40:26;;;;;;;13.37;12.93;;;11.80;99.90;;;;;;5065101;28;20463;-67
2023/09/26 06:42:55;;;;;;;12.97;12.57;;;11.90;99.90;;;;;;5080767;28;20469;-67
2023/09/26 06:45:22;;;;;;;13.10;12.70;;;11.90;99.90;;;;;;5078863;28;20465;-70
2023/09/26 06:47:49;;;;;;;13.13;12.73;;;12.00;99.90;;;;;;5085742;28;20510;-67
2023/09/26 06:50:18;;;;;;;13.80;13.30;;;12.00;99.90;;;;;;5083919;28;20454;-69
2023/09/26 06:52:45;;;;;;;13.87;13.37;;;12.10;99.90;;;;;;5074871;28;20463;-70
2023/09/26 06:55:12;;;;;;;14.20;13.70;;;12.20;99.90;;;;;;5075847;28;20455;-68
2023/09/26 06:57:41;;;;;;;14.63;14.13;;;12.30;99.90;;;;;;5077533;28;20455;-66
2023/09/26 07:00:12;;;;;;;14.17;13.67;;;12.30;99.90;;;;;;5080653;28;20853;-67
2023/09/26 07:02:39;;;;;;;14.93;14.33;;;12.40;99.90;;;;;;5080477;28;20454;-67
2023/09/26 07:05:07;;;;;;;14.80;14.20;;;12.50;99.90;;;;;;5076931;28;20497;-67
2023/09/26 07:07:35;;;;;;;14.17;13.67;;;12.60;99.90;;;;;;5073752;28;20454;-66
2023/09/26 07:10:03;;;;;;;15.20;14.60;;;12.70;99.90;;;;;;5075901;28;20463;-66
2023/09/26 07:12:32;;;;;;;14.30;13.80;;;12.90;99.90;;;;;;5080176;28;20462;-67
2023/09/26 07:14:59;;;;;;;13.90;13.40;;;13.00;99.90;;;;;;5076573;28;20477;-66
2023/09/26 07:17:26;;;;;;;15.23;14.63;;;13.10;99.90;;;;;;5074259;28;20490;-66
2023/09/26 07:19:53;;;;;;;14.80;14.30;;;13.30;99.90;;;;;;5078016;28;20465;-67
2023/09/26 07:22:19;;;;;;;16.30;15.60;;;13.40;99.90;;;;;;5079288;28;20454;-65
2023/09/26 07:24:50;;;;;;;15.57;14.97;;;13.50;99.90;;;;;;5091748;28;20458;-66
2023/09/26 07:27:17;;;;;;;16.07;15.37;;;13.60;99.90;;;;;;5080185;28;20461;-67
2023/09/26 07:29:46;;;;;;;15.80;15.20;;;13.70;99.90;;;;;;5080034;28;20474;-66
2023/09/26 07:32:12;;;;;;;15.43;14.83;;;13.70;99.90;;;;;;5092921;28;20936;-68
2023/09/26 07:34:41;;;;;;;15.90;15.30;;;13.80;99.90;;;;;;5085930;28;20469;-66
2023/09/26 07:37:08;;;;;;;16.20;15.60;;;14.00;99.90;;;;;;5097306;28;20490;-66
2023/09/26 07:39:34;;;;;;;15.17;14.63;;;14.10;99.90;;;;;;5080496;28;20549;-66
2023/09/26 07:42:03;;;;;;;15.30;14.70;;;14.20;99.90;;;;;;5077211;28;22518;-66
2023/09/26 07:44:32;;;;;;;16.30;15.70;;;14.40;99.90;;;;;;5082570;28;20459;-67
2023/09/26 07:46:59;;;;;;;15.70;15.10;;;14.50;99.90;;;;;;5084188;28;20453;-68
2023/09/26 07:49:25;;;;;;;16.00;15.40;;;14.60;99.90;;;;;;5079235;28;20687;-65
2023/09/26 07:51:52;;;;;;;15.00;14.50;;;14.80;99.90;;;;;;5083014;28;20484;-66
2023/09/26 07:54:19;;;;;;;16.10;15.50;;;14.90;99.90;;;;;;5079997;28;20466;-65
2023/09/26 07:56:45;;;;;;;15.70;15.10;;;15.10;99.90;;;;;;5073839;28;20497;-65
2023/09/26 07:59:14;;;;;;;15.70;15.10;;;15.30;99.90;;;;;;5083915;28;20457;-68
2023/09/26 08:01:41;;;;;;;15.90;15.30;;;15.40;99.90;;;;;;5076315;28;21057;-66
2023/09/26 08:04:08;;;;;;;15.80;15.20;;;15.50;99.90;;;;;;5078773;28;20992;-66
2023/09/26 08:06:35;;;;;;;16.00;15.40;;;15.50;99.90;;;;;;5081945;28;20482;-68
2023/09/26 08:09:03;;;;;;;15.50;14.90;;;15.60;99.90;;;;;;5085494;28;20477;-68
2023/09/26 08:11:30;;;;;;;15.40;14.80;;;15.90;99.90;;;;;;5081098;28;20571;-66
2023/09/26 08:13:57;;;;;;;15.30;14.70;;;15.90;99.90;;;;;;5084927;28;20859;-66
2023/09/26 08:16:26;;;;;;;15.00;14.50;;;16.10;99.90;;;;;;5092000;28;21164;-66
2023/09/26 08:18:53;;;;;;;15.10;14.60;;;16.20;99.90;;;;;;5083831;28;20471;-66
2023/09/26 08:21:20;;;;;;;15.50;14.90;;;16.40;99.90;;;;;;5095139;28;20951;-66
2023/09/26 08:23:48;;;;;;;14.73;14.23;;;16.50;99.90;;;;;;5086089;28;21024;-66
2023/09/26 08:26:15;;;;;;;15.00;14.50;;;16.60;99.90;;;;;;5077550;28;20457;-66
2023/09/26 08:28:42;;;;;;;14.90;14.40;;;16.70;99.90;;;;;;5096599;28;20486;-66
2023/09/26 08:31:15;;;;;;;15.00;14.50;;;16.90;99.90;;;;;;5068273;28;20469;-66
2023/09/26 08:33:44;;;;;;;14.47;13.97;;;17.00;99.90;;;;;;5079211;28;20510;-65
2023/09/26 08:36:15;;;;;;;14.80;14.30;;;17.10;99.90;;;;;;5084446;28;20490;-66
2023/09/26 08:38:43;;;;;;;14.73;14.23;;;17.10;99.90;;;;;;5079153;28;20573;-66
2023/09/26 08:41:11;;;;;;;14.90;14.40;;;17.20;99.90;;;;;;5086807;28;20461;-65
2023/09/26 08:43:38;;;;;;;14.70;14.20;;;17.30;99.90;;;;;;5080815;28;20477;-65
2023/09/26 08:46:07;;;;;;;14.40;13.90;;;17.50;99.90;;;;;;5090383;28;20840;-67
2023/09/26 08:48:34;;;;;;;14.57;14.07;;;17.50;99.90;;;;;;5082283;28;20467;-65
2023/09/26 08:51:03;;;;;;;14.50;14.00;;;17.50;99.90;;;;;;5076199;28;20478;-66
2023/09/26 08:53:31;;;;;;;15.17;14.67;;;17.70;99.90;;;;;;5086808;28;20465;-66
2023/09/26 08:56:00;;;;;;;14.47;13.97;;;17.80;99.90;;;;;;5081846;28;20824;-65
2023/09/26 08:58:28;;;;;;;14.70;14.20;;;17.90;99.90;;;;;;5082979;28;20457;-66
2023/09/26 09:00:55;;;;;;;14.60;14.10;;;18.10;99.90;;;;;;5079879;28;20477;-65
2023/09/26 09:03:22;;;;;;;14.43;13.93;;;18.20;99.90;;;;;;5100064;28;20823;-66
2023/09/26 09:05:49;;;;;;;14.30;13.80;;;18.30;99.90;;;;;;5078622;28;20861;-66
2023/09/26 09:08:23;;;;;;;14.70;14.20;;;18.20;99.90;;;;;;5081848;28;20461;-65
2023/09/26 09:10:50;;;;;;;14.50;14.00;;;18.30;99.90;;;;;;5077551;28;20450;-66
2023/09/26 09:13:27;;;;;;;14.63;14.13;;;18.50;99.90;;;;;;5076376;28;20465;-65
2023/09/26 09:16:10;;;;;;;14.60;14.10;;;18.50;99.90;;;;;;5085079;28;20477;-64
2023/09/26 09:18:38;;;;;;;14.60;14.10;;;18.80;99.90;;;;;;5078126;28;20469;-66
2023/09/26 09:21:27;;;;;;;15.07;14.57;;;18.80;99.90;;;;;;5084628;28;20509;-66
2023/09/26 09:23:56;;;;;;;14.90;14.40;;;18.90;99.90;;;;;;5088276;28;20814;-66
2023/09/26 09:26:24;;;;;;;14.83;14.33;;;19.10;99.90;;;;;;5083932;28;21047;-66
2023/09/26 09:28:55;;;;;;;14.70;14.20;;;19.30;99.90;;;;;;5078563;28;20485;-65
2023/09/26 09:31:22;;;;;;;14.43;13.93;;;19.40;99.90;;;;;;5092487;28;20591;-65
2023/09/26 09:33:52;;;;;;;14.30;13.80;;;19.70;99.90;;;;;;5077892;28;20627;-65
2023/09/26 09:36:20;;;;;;;14.60;14.10;;;20.20;99.90;;;;;;5094973;28;20506;-65
2023/09/26 09:38:48;;;;;;;14.40;13.90;;;20.90;99.90;;;;;;5082803;28;20465;-66
2023/09/26 09:41:16;;;;;;;14.90;14.40;;;21.80;99.90;;;;;;5078917;28;20535;-66
2023/09/26 09:43:43;;;;;;;14.50;14.00;;;22.70;99.90;;;;;;5083692;28;21297;-65
2023/09/26 09:46:12;;;;;;;14.60;14.10;;;23.50;99.90;;;;;;5087403;28;20465;-68
2023/09/26 09:48:42;;;;;;;15.40;14.90;;;24.00;99.90;;;;;;5077572;28;20477;-66
2023/09/26 09:51:13;;;;;;;15.47;14.97;;;24.40;99.90;;;;;;5077627;28;20458;-65
2023/09/26 09:53:42;;;;;;;15.07;14.57;;;24.50;99.90;;;;;;5081690;28;20474;-67
2023/09/26 09:56:12;;;;;;;15.10;14.60;;;24.80;99.90;;;;;;5081470;28;20800;-67
2023/09/26 09:58:44;;;;;;;15.70;15.20;;;25.00;99.90;;;;;;5077152;28;20466;-65
2023/09/26 10:01:14;;;;;;;15.60;15.10;;;25.00;99.90;;;;;;5087338;28;20746;-64
2023/09/26 10:03:42;;;;;;;15.80;15.30;;;25.20;99.90;;;;;;5076966;28;20854;-65
2023/09/26 10:06:10;;;;;;;16.13;15.53;;;25.00;99.90;;;;;;5077125;28;20466;-65
2023/09/26 10:08:39;;;;;;;15.70;15.20;;;25.50;99.90;;;;;;5083118;28;20461;-67
2023/09/26 10:11:07;;;;;;;15.50;15.00;;;25.80;99.90;;;;;;5083753;28;20537;-67
2023/09/26 10:13:35;;;;;;;15.73;15.23;;;25.60;99.90;;;;;;5074616;28;20494;-66
2023/09/26 10:16:06;;;;;;;15.60;15.10;;;25.60;99.90;;;;;;5075265;28;20489;-67
2023/09/26 10:18:37;;;;;;;15.77;15.27;;;25.40;99.90;;;;;;5084768;28;20535;-67
2023/09/26 10:21:04;;;;;;;15.97;15.47;;;25.10;99.90;;;;;;5085927;28;20489;-66
2023/09/26 10:23:32;;;;;;;16.10;15.60;;;25.30;99.90;;;;;;5085212;28;20462;-67
2023/09/26 10:26:02;;;;;;;16.47;15.93;;;25.70;99.90;;;;;;5077812;28;20493;-66
2023/09/26 10:28:30;;;;;;;16.53;16.00;;;26.00;99.90;;;;;;5072029;28;20500;-67
2023/09/26 10:30:58;;;;;;;16.50;15.90;;;26.30;99.90;;;;;;5077908;28;20509;-66
2023/09/26 10:33:29;;;;;;;15.93;15.43;;;26.60;99.90;;;;;;5075984;28;20472;-66
2023/09/26 10:36:04;;;;;;;15.93;15.43;;;26.50;99.90;;;;;;5086048;28;20504;-67
2023/09/26 10:38:33;;;;;;;15.53;15.03;;;27.20;99.90;;;;;;5078011;28;20477;-66
2023/09/26 10:40:59;;;;;;;15.37;14.87;;;27.90;99.90;;;;;;5069276;28;20597;-65
2023/09/26 10:43:28;;;;;;;15.27;14.77;;;28.10;99.90;;;;;;5076933;28;20465;-66
2023/09/26 10:45:58;;;;;;;15.83;15.33;;;28.30;99.90;;;;;;5074286;28;20474;-67
2023/09/26 10:48:28;;;;;;;15.73;15.23;;;28.90;99.90;;;;;;5072472;28;20995;-66
2023/09/26 10:50:56;;;;;;;16.03;15.53;;;29.50;99.90;;;;;;5075166;28;20465;-67
2023/09/26 10:53:23;;;;;;;15.67;15.17;;;28.80;99.90;;;;;;5070093;28;20996;-66
2023/09/26 10:55:50;;;;;;;16.10;15.60;;;28.80;99.90;;;;;;5073396;28;20960;-68
2023/09/26 10:58:21;;;;;;;15.87;15.37;;;28.70;99.90;;;;;;5076102;28;20502;-66
2023/09/26 11:00:52;;;;;;;15.37;14.87;;;29.10;99.90;;;;;;5084136;28;20831;-68
2023/09/26 11:03:19;;;;;;;16.60;16.00;;;29.40;99.90;;;;;;5072147;28;20446;-67
2023/09/26 11:05:47;;;;;;;16.47;15.93;;;29.90;99.90;;;;;;5080187;28;20470;-67
2023/09/26 11:08:14;;;;;;;16.60;16.00;;;30.10;99.90;;;;;;5078388;28;20467;-67
2023/09/26 11:10:46;;;;;;;15.67;15.17;;;29.60;99.30;;;;;;5082351;28;20549;-66
2023/09/26 11:13:14;;;;;;;15.80;15.30;;;29.40;99.90;;;;;;5074361;28;20625;-67
2023/09/26 11:15:40;;;;;;;15.87;15.37;;;29.90;99.90;;;;;;5070866;28;20507;-67
2023/09/26 11:18:12;;;;;;;16.00;15.50;;;30.00;99.90;;;;;;5083009;28;20494;-67
2023/09/26 11:20:39;;;;;;;16.20;15.70;;;30.00;99.50;;;;;;5078613;28;20822;-67
2023/09/26 11:23:08;;;;;;;17.00;16.40;;;30.50;99.00;;;;;;5072083;28;20478;-67
2023/09/26 11:25:36;;;;;;;16.20;15.70;;;30.50;97.50;;;;;;5079720;28;20458;-67
2023/09/26 11:28:03;;;;;;;16.07;15.57;;;30.60;95.20;;;;;;5079591;28;20465;-67
2023/09/26 11:30:30;;;;;;;16.13;15.63;;;30.80;95.30;;;;;;5049694;28;20490;-68
2023/09/26 11:32:58;;;;;;;17.00;16.40;;;30.30;96.10;;;;;;5053713;28;20478;-67
2023/09/26 11:35:27;;;;;;;16.50;16.00;;;31.00;95.50;;;;;;5060806;28;21148;-67
2023/09/26 11:37:55;;;;;;;16.27;15.77;;;31.50;93.70;;;;;;5065914;28;20838;-67
2023/09/26 11:40:24;;;;;;;16.20;15.70;;;31.40;92.70;;;;;;5047244;28;20474;-67
2023/09/26 11:42:55;;;;;;;16.30;15.80;;;31.70;93.40;;;;;;5059588;28;20491;-67
2023/09/26 11:45:23;;;;;;;16.10;15.60;;;31.80;91.30;;;;;;5055780;28;20467;-67
2023/09/26 11:47:53;;;;;;;16.30;15.80;;;32.30;91.30;;;;;;5057247;28;20451;-67
2023/09/26 11:50:20;;;;;;;17.10;16.50;;;32.00;88.40;;;;;;5063286;28;20574;-67
2023/09/26 11:52:48;;;;;;;16.60;16.00;;;32.40;87.60;;;;;;5062111;28;20471;-67
2023/09/26 11:55:17;;;;;;;16.13;15.63;;;32.80;89.40;;;;;;5048591;28;20466;-68
2023/09/26 11:57:46;;;;;;;16.47;15.90;;;33.10;86.90;;;;;;5057136;28;20548;-67
2023/09/26 12:00:17;;;;;;;16.33;15.83;;;33.30;85.40;;;;;;5055176;28;20989;-67
2023/09/26 12:02:44;;;;;;;16.10;15.60;;;33.80;82.10;;;;;;5057727;28;20463;-68
2023/09/26 12:05:13;;;;;;;16.10;15.60;;;33.70;82.00;;;;;;5053315;28;20474;-68
2023/09/26 12:07:41;;;;;;;15.90;15.40;;;33.50;81.10;;;;;;5058758;28;20455;-68
2023/09/26 12:10:09;;;;;;;16.73;16.23;;;33.60;78.70;;;;;;5052616;28;20471;-67
2023/09/26 12:12:37;;;;;;;15.93;15.43;;;32.10;78.80;;;;;;5055453;28;20606;-68
2023/09/26 12:15:19;;;;;;;15.20;14.70;;;31.30;81.30;;;;;;5058641;28;20447;-68
2023/09/26 12:17:46;;;;;;;15.90;15.40;;;31.80;81.80;;;;;;5056680;28;20501;-68
2023/09/26 12:20:16;;;;;;;15.80;15.30;;;32.00;79.60;;;;;;5054349;28;20464;-67
2023/09/26 12:22:43;;;;;;;16.23;15.73;;;32.00;80.30;;;;;;5049258;28;20541;-68
2023/09/26 12:25:11;;;;;;;16.07;15.57;;;31.60;80.00;;;;;;5061120;28;20466;-68
2023/09/26 12:27:38;;;;;;;16.30;15.80;;;30.70;79.20;;;;;;5054437;28;20998;-67
2023/09/26 12:30:06;;;;;;;16.00;15.50;;;30.70;77.90;;;;;;5083938;28;20469;-67
2023/09/26 12:32:34;;;;;;;15.90;15.40;;;31.70;78.50;;;;;;5082526;28;21025;-68
2023/09/26 12:35:01;;;;;;;15.73;15.23;;;32.10;77.90;;;;;;5071365;28;20463;-68
2023/09/26 12:37:29;;;;;;;16.10;15.60;;;31.20;77.50;;;;;;5074428;28;20776;-68
2023/09/26 12:39:56;;;;;;;16.10;15.60;;;32.10;77.90;;;;;;5080601;28;20545;-68
2023/09/26 12:42:22;;;;;;;16.23;15.73;;;33.00;77.90;;;;;;5078705;28;20453;-68